createdAt,value
2022-12-18T00:00:09.204Z,9.88
2022-12-18T00:02:42.053Z,8.32
2022-12-18T00:05:10.366Z,9.35
2022-12-18T00:07:38.495Z,12.90
2022-12-18T00:10:07.366Z,10.98
2022-12-18T00:12:35.107Z,8.77
2022-12-18T00:15:03.073Z,9.75
2022-12-18T00:17:31.033Z,10.48
2022-12-18T00:19:58.930Z,10.13
2022-12-18T00:22:27.291Z,10.07
2022-12-18T00:24:56.101Z,9.43
2022-12-18T00:27:24.166Z,10.02
2022-12-18T00:29:52.064Z,9.57
2022-12-18T00:32:19.892Z,9.73
2022-12-18T00:34:47.733Z,8.20
2022-12-18T00:37:20.040Z,9.80
2022-12-18T00:39:52.333Z,10.73
2022-12-18T00:42:39.638Z,12.30
2022-12-18T00:45:12.617Z,10.23
2022-12-18T00:47:41.592Z,8.10
2022-12-18T00:50:10.722Z,9.20
2022-12-18T00:52:38.680Z,8.25
2022-12-18T00:55:08.131Z,6.50
2022-12-18T00:57:36.749Z,8.00
2022-12-18T01:00:06.955Z,10.98
2022-12-18T01:02:36.707Z,8.77
2022-12-18T01:05:05.712Z,9.82
2022-12-18T01:07:33.720Z,5.53
2022-12-18T01:10:04.829Z,8.27
2022-12-18T01:12:32.887Z,7.10
2022-12-18T01:15:00.766Z,5.65
2022-12-18T01:17:29.208Z,7.18
2022-12-18T01:19:56.915Z,5.93
2022-12-18T01:22:25.372Z,8.43
2022-12-18T01:24:53.718Z,7.05
2022-12-18T01:27:23.533Z,8.05
2022-12-18T01:29:53.024Z,6.72
2022-12-18T01:32:21.487Z,6.18
2022-12-18T01:34:49.548Z,8.97
2022-12-18T01:37:17.774Z,7.72
2022-12-18T01:39:46.146Z,8.52
2022-12-18T01:42:16.678Z,11.05
2022-12-18T01:44:58.356Z,15.48
2022-12-18T01:47:40.093Z,25.37
2022-12-18T01:50:15.509Z,23.30
2022-12-18T01:52:50.460Z,20.50
2022-12-18T01:55:21.749Z,17.95
2022-12-18T01:57:54.091Z,16.52
2022-12-18T02:00:24.364Z,14.90
2022-12-18T02:02:53.224Z,12.80
2022-12-18T02:05:41.425Z,11.80
2022-12-18T02:08:30.792Z,11.93
2022-12-18T02:11:17.238Z,9.98
2022-12-18T02:14:08.150Z,8.23
2022-12-18T02:16:42.192Z,8.05
2022-12-18T02:19:33.764Z,9.75
2022-12-18T02:22:22.586Z,7.43
2022-12-18T02:25:15.010Z,9.00
2022-12-18T02:27:45.775Z,9.93
2022-12-18T02:30:15.366Z,10.52
2022-12-18T02:32:48.316Z,8.80
2022-12-18T02:35:25.408Z,10.63
2022-12-18T02:37:57.078Z,11.30
2022-12-18T02:40:28.857Z,8.20
2022-12-18T02:42:57.514Z,12.25
2022-12-18T02:45:29.235Z,7.40
2022-12-18T02:47:57.918Z,6.75
2022-12-18T02:50:43.204Z,9.80
2022-12-18T02:53:17.099Z,8.07
2022-12-18T02:55:53.094Z,8.73
2022-12-18T02:58:46.888Z,7.88
2022-12-18T03:01:28.292Z,8.88
2022-12-18T03:04:30.628Z,7.70
2022-12-18T03:07:06.932Z,6.97
2022-12-18T03:09:41.371Z,10.85
2022-12-18T03:12:24.683Z,7.57
2022-12-18T03:15:04.726Z,11.88
2022-12-18T03:17:39.506Z,7.47
2022-12-18T03:20:15.073Z,12.40
2022-12-18T03:22:46.944Z,8.85
2022-12-18T03:25:20.847Z,9.30
2022-12-18T03:27:52.958Z,6.53
2022-12-18T03:30:22.309Z,11.02
2022-12-18T03:33:16.499Z,8.23
2022-12-18T03:35:48.664Z,10.07
2022-12-18T03:38:22.128Z,6.18
2022-12-18T03:41:13.639Z,14.40
2022-12-18T03:44:28.148Z,7.10
2022-12-18T03:47:11.720Z,7.90
2022-12-18T03:49:43.254Z,9.50
2022-12-18T03:52:22.156Z,8.07
2022-12-18T03:54:51.287Z,9.70
2022-12-18T03:57:24.170Z,9.52
2022-12-18T03:59:59.299Z,9.03
2022-12-18T04:02:32.449Z,6.13
2022-12-18T04:05:06.290Z,7.80
2022-12-18T04:07:36.926Z,11.65
2022-12-18T04:10:09.866Z,6.68
2022-12-18T04:12:40.458Z,7.33
2022-12-18T04:15:13.336Z,9.95
2022-12-18T04:17:49.151Z,6.25
2022-12-18T04:20:20.072Z,7.85
2022-12-18T04:22:49.199Z,9.07
2022-12-18T04:25:19.226Z,10.13
2022-12-18T04:28:07.462Z,8.10
2022-12-18T04:30:36.679Z,6.03
2022-12-18T04:33:04.686Z,8.55
2022-12-18T04:35:33.639Z,5.82
2022-12-18T04:38:02.545Z,8.27
2022-12-18T04:40:30.616Z,5.60
2022-12-18T04:42:59.287Z,5.32
2022-12-18T04:45:27.712Z,9.43
2022-12-18T04:47:56.809Z,9.63
2022-12-18T04:50:25.263Z,6.50
2022-12-18T04:52:53.152Z,6.57
2022-12-18T04:55:22.319Z,7.88
2022-12-18T04:57:50.362Z,8.27
2022-12-18T05:00:18.736Z,8.52
2022-12-18T05:02:47.170Z,6.80
2022-12-18T05:05:15.387Z,10.10
2022-12-18T05:07:43.172Z,6.25
2022-12-18T05:10:11.602Z,7.95
2022-12-18T05:13:01.216Z,6.88
2022-12-18T05:15:33.854Z,6.03
2022-12-18T05:18:03.008Z,9.43
2022-12-18T05:20:32.093Z,6.65
2022-12-18T05:23:00.247Z,5.93
2022-12-18T05:25:29.578Z,8.90
2022-12-18T05:27:57.868Z,8.00
2022-12-18T05:30:26.051Z,6.18
2022-12-18T05:32:54.388Z,7.43
2022-12-18T05:35:23.263Z,7.15
2022-12-18T05:37:51.379Z,6.13
2022-12-18T05:40:19.422Z,12.93
2022-12-18T05:42:47.435Z,6.97
2022-12-18T05:45:15.527Z,6.13
2022-12-18T05:47:43.858Z,10.02
2022-12-18T05:50:11.706Z,7.93
2022-12-18T05:52:40.135Z,7.83
2022-12-18T05:55:08.433Z,7.82
2022-12-18T05:57:36.772Z,6.20
2022-12-18T06:00:05.812Z,8.75
2022-12-18T06:02:40.089Z,6.55
2022-12-18T06:05:08.362Z,8.03
2022-12-18T06:07:36.164Z,5.28
2022-12-18T06:10:04.788Z,7.63
2022-12-18T06:12:34.686Z,3.95
2022-12-18T06:15:02.723Z,5.35
2022-12-18T06:17:35.082Z,5.00
2022-12-18T06:20:03.118Z,5.57
2022-12-18T06:22:33.337Z,4.88
2022-12-18T06:25:01.492Z,5.18
2022-12-18T06:27:33.108Z,5.95
2022-12-18T06:30:02.184Z,5.07
2022-12-18T06:32:29.936Z,2.75
2022-12-18T06:34:57.781Z,2.92
2022-12-18T06:37:27.695Z,4.85
2022-12-18T06:39:56.121Z,5.15
2022-12-18T06:42:24.506Z,3.03
2022-12-18T06:44:52.499Z,5.07
2022-12-18T06:47:20.643Z,2.80
2022-12-18T06:49:48.534Z,2.75
2022-12-18T06:52:16.486Z,2.60
2022-12-18T06:54:44.601Z,3.63
2022-12-18T06:57:12.503Z,4.05
2022-12-18T06:59:40.378Z,3.78
2022-12-18T07:02:08.416Z,3.97
2022-12-18T07:04:36.304Z,4.32
2022-12-18T07:07:04.382Z,3.90
2022-12-18T07:09:32.099Z,4.32
2022-12-18T07:11:59.894Z,3.72
2022-12-18T07:14:28.017Z,5.13
2022-12-18T07:16:55.975Z,5.45
2022-12-18T07:19:23.872Z,4.43
2022-12-18T07:21:52.366Z,5.93
2022-12-18T07:24:20.562Z,3.75
2022-12-18T07:26:49.218Z,5.30
2022-12-18T07:29:17.210Z,3.80
2022-12-18T07:31:45.300Z,7.03
2022-12-18T07:34:14.784Z,4.80
2022-12-18T07:36:42.918Z,9.00
2022-12-18T07:39:12.940Z,12.50
2022-12-18T07:41:46.759Z,14.27
2022-12-18T07:44:17.338Z,15.60
2022-12-18T07:46:45.268Z,14.35
2022-12-18T07:49:13.482Z,15.20
2022-12-18T07:51:41.383Z,11.43
2022-12-18T07:54:09.288Z,8.05
2022-12-18T07:56:37.687Z,7.00
2022-12-18T07:59:05.602Z,6.22
2022-12-18T08:01:34.697Z,9.63
2022-12-18T08:04:02.725Z,8.15
2022-12-18T08:06:30.461Z,6.72
2022-12-18T08:08:59.153Z,11.27
2022-12-18T08:11:28.967Z,11.38
2022-12-18T08:13:57.522Z,8.63
2022-12-18T08:16:25.802Z,6.90
2022-12-18T08:18:55.152Z,8.13
2022-12-18T08:21:28.563Z,6.30
2022-12-18T08:23:58.835Z,6.90
2022-12-18T08:26:28.843Z,6.18
2022-12-18T08:28:58.820Z,8.55
2022-12-18T08:31:29.144Z,7.97
2022-12-18T08:33:58.168Z,8.50
2022-12-18T08:36:27.725Z,7.37
2022-12-18T08:38:55.765Z,7.95
2022-12-18T08:41:23.802Z,8.00
2022-12-18T08:44:10.242Z,8.18
2022-12-18T08:46:41.452Z,6.60
2022-12-18T08:49:10.742Z,7.83
2022-12-18T08:51:39.520Z,6.82
2022-12-18T08:54:08.255Z,7.45
2022-12-18T08:56:36.287Z,8.95
2022-12-18T08:59:05.908Z,8.60
2022-12-18T09:01:34.004Z,7.57
2022-12-18T09:04:03.468Z,7.28
2022-12-18T09:06:33.220Z,5.55
2022-12-18T09:09:00.851Z,6.65
2022-12-18T09:11:31.943Z,6.68
2022-12-18T09:14:02.185Z,7.93
2022-12-18T09:16:32.531Z,7.10
2022-12-18T09:19:01.602Z,6.53
2022-12-18T09:21:36.818Z,6.38
2022-12-18T09:24:08.556Z,7.18
2022-12-18T09:26:37.661Z,5.77
2022-12-18T09:29:05.895Z,7.80
2022-12-18T09:31:33.824Z,7.38
2022-12-18T09:34:01.851Z,6.28
2022-12-18T09:36:29.702Z,8.55
2022-12-18T09:38:57.491Z,9.83
2022-12-18T09:41:56.105Z,10.07
2022-12-18T09:44:32.325Z,7.78
2022-12-18T09:47:31.225Z,8.02
2022-12-18T09:50:05.137Z,7.65
2022-12-18T09:52:40.746Z,10.70
2022-12-18T09:55:12.558Z,8.80
2022-12-18T09:57:49.357Z,12.85
2022-12-18T10:00:21.923Z,8.68
2022-12-18T10:02:53.376Z,7.80
2022-12-18T10:05:26.388Z,8.40
2022-12-18T10:08:18.283Z,7.88
2022-12-18T10:10:55.389Z,7.63
2022-12-18T10:14:01.515Z,9.00
2022-12-18T10:16:35.296Z,8.25
2022-12-18T10:19:03.929Z,10.87
2022-12-18T10:21:37.940Z,8.70
2022-12-18T10:24:22.365Z,6.55
2022-12-18T10:26:50.343Z,10.52
2022-12-18T10:29:18.874Z,9.38
2022-12-18T10:31:46.838Z,9.63
2022-12-18T10:34:15.298Z,11.07
2022-12-18T10:36:43.693Z,9.30
2022-12-18T10:39:21.588Z,9.57
2022-12-18T10:41:49.873Z,7.88
2022-12-18T10:44:27.130Z,7.93
2022-12-18T10:47:13.780Z,10.48
2022-12-18T10:49:49.800Z,8.38
2022-12-18T10:52:24.121Z,7.50
2022-12-18T10:55:06.322Z,8.55
2022-12-18T10:57:38.193Z,14.73
2022-12-18T11:00:29.059Z,15.65
2022-12-18T11:02:58.679Z,14.00
2022-12-18T11:05:31.650Z,15.52
2022-12-18T11:08:01.168Z,14.40
2022-12-18T11:10:39.044Z,36.00
2022-12-18T11:13:28.818Z,16.80
2022-12-18T11:27:00.406Z,14.40
2022-12-18T11:29:44.934Z,13.52
2022-12-18T11:32:26.461Z,15.93
2022-12-18T11:35:24.534Z,17.17
2022-12-18T11:38:00.228Z,13.57
2022-12-18T11:40:51.213Z,14.48
2022-12-18T11:43:30.315Z,15.40
2022-12-18T11:46:25.435Z,15.07
2022-12-18T11:49:09.214Z,12.57
2022-12-18T11:51:48.899Z,11.00
2022-12-18T11:54:17.905Z,13.02
2022-12-18T11:56:50.375Z,12.27
2022-12-18T11:59:30.686Z,13.48
2022-12-18T12:02:29.130Z,11.70
2022-12-18T12:05:14.270Z,13.77
2022-12-18T12:07:44.988Z,12.88
2022-12-18T12:10:18.863Z,13.45
2022-12-18T12:12:50.689Z,14.25
2022-12-18T12:15:25.543Z,13.38
2022-12-18T12:18:17.687Z,10.90
2022-12-18T12:21:06.134Z,10.00
2022-12-18T12:23:39.733Z,12.60
2022-12-18T12:26:40.887Z,10.00
2022-12-18T12:29:40.768Z,9.82
2022-12-18T12:32:28.765Z,10.80
2022-12-18T12:35:24.765Z,11.77
2022-12-18T12:38:02.482Z,13.77
2022-12-18T12:40:53.490Z,8.68
2022-12-18T12:43:49.643Z,7.47
2022-12-18T12:46:23.151Z,8.10
2022-12-18T12:49:04.319Z,7.50
2022-12-18T12:51:44.944Z,9.82
2022-12-18T12:54:20.672Z,7.25
2022-12-18T12:57:01.308Z,6.90
2022-12-18T12:59:38.132Z,6.40
2022-12-18T13:02:39.323Z,11.63
2022-12-18T13:05:29.822Z,7.55
2022-12-18T13:08:04.816Z,7.50
2022-12-18T13:10:43.834Z,8.63
2022-12-18T13:13:24.295Z,8.97
2022-12-18T13:16:09.761Z,8.30
2022-12-18T13:18:40.196Z,6.47
2022-12-18T13:21:42.026Z,7.38
2022-12-18T13:24:29.478Z,6.88
2022-12-18T13:26:58.104Z,8.17
2022-12-18T13:29:46.842Z,7.47
2022-12-18T13:32:27.111Z,6.30
2022-12-18T13:35:34.587Z,6.50
2022-12-18T13:38:23.402Z,6.00
2022-12-18T13:40:56.743Z,8.03
2022-12-18T13:43:30.231Z,6.72
2022-12-18T13:46:21.724Z,7.70
2022-12-18T13:48:58.226Z,6.80
2022-12-18T13:51:27.667Z,6.93
2022-12-18T13:54:21.420Z,4.80
2022-12-18T13:56:51.648Z,5.38
2022-12-18T13:59:22.272Z,5.05
2022-12-18T14:02:02.836Z,6.45
2022-12-18T14:04:36.232Z,12.82
2022-12-18T14:07:23.527Z,9.73
2022-12-18T14:10:11.944Z,5.55
2022-12-18T14:12:59.216Z,12.90
2022-12-18T14:15:40.251Z,10.10
2022-12-18T14:18:31.227Z,7.85
2022-12-18T14:21:02.101Z,7.30
2022-12-18T14:23:44.164Z,8.70
2022-12-18T14:26:25.923Z,5.63
2022-12-18T14:28:55.515Z,6.00
2022-12-18T14:31:27.000Z,7.18
2022-12-18T14:33:56.230Z,8.57
2022-12-18T14:36:29.911Z,7.03
2022-12-18T14:38:59.853Z,10.05
2022-12-18T14:41:29.407Z,7.55
2022-12-18T14:44:09.924Z,6.68
2022-12-18T14:46:40.407Z,6.77
2022-12-18T14:49:30.850Z,8.45
2022-12-18T14:52:28.210Z,8.45
2022-12-18T14:54:56.711Z,11.25
2022-12-18T14:57:24.897Z,9.40
2022-12-18T14:59:53.597Z,7.50
2022-12-18T15:02:29.610Z,7.43
2022-12-18T15:05:14.592Z,7.10
2022-12-18T15:07:44.612Z,10.05
2022-12-18T15:10:17.078Z,8.50
2022-12-18T15:12:46.319Z,11.50
2022-12-18T15:15:39.233Z,10.40
2022-12-18T15:18:19.447Z,8.05
2022-12-18T15:21:00.637Z,11.35
2022-12-18T15:23:45.696Z,8.98
2022-12-18T15:26:16.443Z,7.87
2022-12-18T15:28:51.749Z,9.10
2022-12-18T15:31:39.161Z,6.50
2022-12-18T15:34:10.154Z,11.45
2022-12-18T15:36:38.417Z,9.18
2022-12-18T15:39:06.897Z,10.00
2022-12-18T15:41:37.283Z,15.18
2022-12-18T15:44:23.757Z,10.68
2022-12-18T15:46:52.153Z,12.38
2022-12-18T15:49:20.221Z,11.55
2022-12-18T15:51:55.422Z,11.23
2022-12-18T15:54:44.060Z,8.65
2022-12-18T15:57:25.478Z,9.70
2022-12-18T16:00:00.521Z,10.63
2022-12-18T16:02:30.105Z,9.13
2022-12-18T16:05:01.030Z,11.67
2022-12-18T16:07:30.734Z,12.25
2022-12-18T16:10:00.995Z,14.07
2022-12-18T16:12:30.971Z,15.25
2022-12-18T16:14:59.211Z,15.40
2022-12-18T16:17:27.433Z,14.83
2022-12-18T16:19:55.320Z,14.02
2022-12-18T16:22:24.967Z,12.32
2022-12-18T16:24:54.362Z,16.08
2022-12-18T16:27:24.283Z,14.27
2022-12-18T16:29:52.656Z,14.90
2022-12-18T16:32:24.473Z,19.73
2022-12-18T16:34:53.287Z,15.13
2022-12-18T16:37:21.424Z,16.05
2022-12-18T16:39:49.647Z,12.43
2022-12-18T16:42:20.919Z,14.83
2022-12-18T16:44:50.640Z,14.98
2022-12-18T16:47:19.758Z,10.68
2022-12-18T16:49:47.904Z,14.40
2022-12-18T16:52:18.867Z,17.95
2022-12-18T16:54:46.803Z,18.20
2022-12-18T16:57:17.346Z,18.33
2022-12-18T16:59:46.556Z,18.08
2022-12-18T17:02:17.225Z,19.10
2022-12-18T17:04:48.673Z,17.42
2022-12-18T17:07:17.584Z,22.20
2022-12-18T17:09:45.652Z,22.05
2022-12-18T17:12:13.770Z,22.55
2022-12-18T17:14:42.168Z,22.20
2022-12-18T17:17:25.379Z,17.92
2022-12-18T17:19:54.246Z,19.83
2022-12-18T17:22:23.784Z,19.77
2022-12-18T17:24:51.948Z,17.23
2022-12-18T17:27:20.214Z,11.80
2022-12-18T17:29:49.111Z,12.05
2022-12-18T17:32:18.435Z,12.23
2022-12-18T17:34:48.003Z,12.88
2022-12-18T17:37:16.512Z,14.00
2022-12-18T17:39:44.649Z,11.18
2022-12-18T17:42:15.271Z,10.23
2022-12-18T17:44:44.819Z,15.37
2022-12-18T17:47:14.515Z,15.57
2022-12-18T17:49:42.729Z,16.98
2022-12-18T17:52:11.594Z,19.05
2022-12-18T17:54:42.508Z,15.27
2022-12-18T17:57:11.338Z,17.73
2022-12-18T17:59:39.542Z,15.27
2022-12-18T18:02:10.275Z,22.38
2022-12-18T18:04:38.764Z,16.33
2022-12-18T18:07:06.764Z,17.63
2022-12-18T18:09:35.175Z,20.00
2022-12-18T18:12:21.842Z,14.52
2022-12-18T18:14:50.628Z,14.95
2022-12-18T18:17:22.237Z,16.55
2022-12-18T18:19:50.450Z,17.73
2022-12-18T18:22:19.697Z,14.27
2022-12-18T18:24:48.897Z,10.57
2022-12-18T18:27:17.316Z,10.55
2022-12-18T18:29:46.133Z,11.15
2022-12-18T18:32:14.200Z,12.52
2022-12-18T18:34:42.653Z,13.47
2022-12-18T18:37:12.579Z,12.90
2022-12-18T18:39:40.806Z,14.32
2022-12-18T18:42:14.988Z,14.98
2022-12-18T18:44:48.625Z,14.55
2022-12-18T18:47:17.518Z,14.63
2022-12-18T18:49:45.419Z,16.27
2022-12-18T18:52:13.509Z,14.38
2022-12-18T18:54:57.172Z,12.70
2022-12-18T18:57:30.702Z,9.88
2022-12-18T18:59:59.455Z,12.77
2022-12-18T19:02:27.451Z,10.73
2022-12-18T19:04:55.768Z,11.77
2022-12-18T19:07:30.195Z,9.20
2022-12-18T19:10:04.115Z,6.82
2022-12-18T19:12:52.401Z,5.63
2022-12-18T19:15:22.666Z,7.95
2022-12-18T19:17:50.858Z,7.93
2022-12-18T19:20:19.305Z,8.00
2022-12-18T19:22:48.577Z,6.50
2022-12-18T19:25:38.482Z,9.33
2022-12-18T19:28:21.466Z,9.10
2022-12-18T19:30:57.280Z,9.15
2022-12-18T19:33:45.233Z,9.27
2022-12-18T19:36:25.627Z,12.15
2022-12-18T19:38:56.014Z,10.70
2022-12-18T19:41:25.499Z,11.85
2022-12-18T19:43:54.125Z,11.02
2022-12-18T19:46:25.298Z,12.05
2022-12-18T19:48:54.137Z,12.30
2022-12-18T19:51:24.536Z,14.63
2022-12-18T19:53:58.507Z,10.70
2022-12-18T19:56:30.535Z,10.50
2022-12-18T19:58:59.053Z,13.00
2022-12-18T20:01:29.277Z,11.68
2022-12-18T20:03:59.634Z,11.27
2022-12-18T20:06:31.718Z,14.13
2022-12-18T20:09:02.080Z,12.95
2022-12-18T20:11:31.598Z,10.05
2022-12-18T20:13:59.898Z,9.27
2022-12-18T20:16:28.228Z,10.57
2022-12-18T20:18:57.039Z,10.70
2022-12-18T20:21:26.010Z,9.63
2022-12-18T20:23:56.181Z,11.75
2022-12-18T20:26:25.364Z,8.20
2022-12-18T20:28:54.698Z,10.73
2022-12-18T20:31:24.304Z,8.80
2022-12-18T20:33:54.404Z,8.02
2022-12-18T20:36:23.530Z,12.80
2022-12-18T20:38:59.268Z,11.30
2022-12-18T20:41:38.258Z,11.30
2022-12-18T20:44:22.683Z,9.30
2022-12-18T20:46:55.545Z,8.95
2022-12-18T20:49:28.810Z,10.98
2022-12-18T20:51:58.458Z,11.20
2022-12-18T20:54:27.970Z,9.90
2022-12-18T20:56:57.124Z,11.63
2022-12-18T20:59:26.405Z,8.40
2022-12-18T21:01:55.037Z,8.95
2022-12-18T21:04:24.232Z,8.32
2022-12-18T21:06:58.002Z,10.83
2022-12-18T21:09:38.432Z,10.88
2022-12-18T21:12:39.595Z,10.30
2022-12-18T21:15:14.243Z,14.02
2022-12-18T21:17:44.999Z,15.75
2022-12-18T21:20:17.419Z,15.67
2022-12-18T21:22:47.320Z,15.80
2022-12-18T21:25:15.446Z,13.15
2022-12-18T21:27:44.073Z,15.68
2022-12-18T21:30:12.430Z,10.43
2022-12-18T21:32:40.589Z,12.63
2022-12-18T21:35:08.875Z,14.15
2022-12-18T21:37:37.240Z,14.30
2022-12-18T21:40:06.668Z,12.32
2022-12-18T21:42:53.184Z,12.95
2022-12-18T21:45:21.258Z,15.87
2022-12-18T21:47:49.213Z,12.93
2022-12-18T21:50:17.521Z,12.30
2022-12-18T21:52:45.542Z,8.20
2022-12-18T21:55:13.628Z,10.93
2022-12-18T21:57:41.697Z,10.47
2022-12-18T22:00:19.047Z,10.52
2022-12-18T22:03:17.547Z,10.32
2022-12-18T22:05:39.618Z,10.90
2022-12-18T22:08:08.124Z,9.00
2022-12-18T22:10:37.239Z,12.27
2022-12-18T22:13:08.862Z,9.48
2022-12-18T22:15:37.180Z,8.90
2022-12-18T22:18:05.557Z,8.52
2022-12-18T22:20:33.775Z,8.10
2022-12-18T22:23:05.787Z,10.37
2022-12-18T22:25:35.372Z,10.10
2022-12-18T22:28:26.382Z,10.77
2022-12-18T22:30:56.354Z,11.82
2022-12-18T22:33:28.555Z,11.02
2022-12-18T22:35:56.546Z,9.50
2022-12-18T22:38:24.781Z,11.95
2022-12-18T22:40:52.720Z,14.15
2022-12-18T22:43:20.726Z,8.93
2022-12-18T22:45:49.405Z,10.77
2022-12-18T22:48:17.977Z,14.97
2022-12-18T22:50:45.730Z,12.68
2022-12-18T22:53:13.874Z,10.15
2022-12-18T22:55:42.036Z,11.32
2022-12-18T22:58:10.193Z,7.82
2022-12-18T23:00:38.501Z,11.90
2022-12-18T23:03:06.725Z,9.43
2022-12-18T23:05:35.194Z,14.05
2022-12-18T23:08:03.649Z,8.75
2022-12-18T23:10:31.492Z,11.10
2022-12-18T23:12:59.775Z,11.80
2022-12-18T23:15:28.692Z,10.63
2022-12-18T23:17:59.477Z,9.20
2022-12-18T23:20:28.852Z,9.80
2022-12-18T23:22:56.750Z,10.35
2022-12-18T23:25:25.259Z,9.17
2022-12-18T23:27:53.635Z,10.70
2022-12-18T23:30:21.880Z,11.65
2022-12-18T23:32:50.420Z,12.30
2022-12-18T23:35:21.709Z,14.27
2022-12-18T23:37:58.957Z,11.50
2022-12-18T23:40:29.885Z,10.98
2022-12-18T23:43:00.233Z,12.43
2022-12-18T23:45:29.116Z,11.48
2022-12-18T23:47:57.181Z,12.40
2022-12-18T23:50:29.657Z,12.80
2022-12-18T23:53:05.062Z,9.98
2022-12-18T23:55:39.120Z,10.77
2022-12-18T23:58:08.561Z,12.63
